sensor_id;sensor_type;location;lat;lon;timestamp;P1;durP1;ratioP1;P2;durP2;ratioP2
84860;SDS011;75116;42.644;23.274;2024-03-07T00:00:07;25.85;;;14.18;;
84860;SDS011;75116;42.644;23.274;2024-03-07T00:02:40;27.27;;;14.73;;
84860;SDS011;75116;42.644;23.274;2024-03-07T00:05:10;23.58;;;12.63;;
84860;SDS011;75116;42.644;23.274;2024-03-07T00:07:38;25.75;;;12.23;;
84860;SDS011;75116;42.644;23.274;2024-03-07T00:10:04;23.08;;;13.77;;
84860;SDS011;75116;42.644;23.274;2024-03-07T00:12:35;27.30;;;14.00;;
84860;SDS011;75116;42.644;23.274;2024-03-07T00:15:06;26.95;;;11.95;;
84860;SDS011;75116;42.644;23.274;2024-03-07T00:17:33;21.70;;;11.98;;
84860;SDS011;75116;42.644;23.274;2024-03-07T00:19:59;22.95;;;11.48;;
84860;SDS011;75116;42.644;23.274;2024-03-07T00:22:25;22.35;;;13.25;;
84860;SDS011;75116;42.644;23.274;2024-03-07T00:24:54;28.13;;;13.15;;
84860;SDS011;75116;42.644;23.274;2024-03-07T00:27:21;24.88;;;14.13;;
84860;SDS011;75116;42.644;23.274;2024-03-07T00:29:47;27.60;;;14.35;;
84860;SDS011;75116;42.644;23.274;2024-03-07T00:32:19;26.67;;;12.85;;
84860;SDS011;75116;42.644;23.274;2024-03-07T00:34:45;27.77;;;14.45;;
84860;SDS011;75116;42.644;23.274;2024-03-07T00:37:11;24.20;;;12.43;;
84860;SDS011;75116;42.644;23.274;2024-03-07T00:39:37;49.30;;;16.10;;
84860;SDS011;75116;42.644;23.274;2024-03-07T00:42:03;37.65;;;14.52;;
84860;SDS011;75116;42.644;23.274;2024-03-07T00:44:29;191.18;;;19.33;;
84860;SDS011;75116;42.644;23.274;2024-03-07T00:46:54;110.85;;;17.73;;
84860;SDS011;75116;42.644;23.274;2024-03-07T00:49:26;27.02;;;11.70;;
84860;SDS011;75116;42.644;23.274;2024-03-07T00:51:53;44.05;;;17.02;;
84860;SDS011;75116;42.644;23.274;2024-03-07T00:54:19;75.22;;;18.58;;
84860;SDS011;75116;42.644;23.274;2024-03-07T00:56:45;107.60;;;24.33;;
84860;SDS011;75116;42.644;23.274;2024-03-07T00:59:14;36.08;;;14.75;;
84860;SDS011;75116;42.644;23.274;2024-03-07T01:01:42;34.00;;;15.00;;
84860;SDS011;75116;42.644;23.274;2024-03-07T01:04:08;44.55;;;18.70;;
84860;SDS011;75116;42.644;23.274;2024-03-07T01:06:34;31.75;;;15.38;;
84860;SDS011;75116;42.644;23.274;2024-03-07T01:09:01;37.65;;;16.15;;
84860;SDS011;75116;42.644;23.274;2024-03-07T01:11:27;43.22;;;18.55;;
84860;SDS011;75116;42.644;23.274;2024-03-07T01:13:53;38.05;;;16.83;;
84860;SDS011;75116;42.644;23.274;2024-03-07T01:16:19;35.97;;;15.98;;
84860;SDS011;75116;42.644;23.274;2024-03-07T01:18:44;23.42;;;12.15;;
84860;SDS011;75116;42.644;23.274;2024-03-07T01:21:10;33.53;;;14.95;;
84860;SDS011;75116;42.644;23.274;2024-03-07T01:23:36;33.30;;;14.70;;
84860;SDS011;75116;42.644;23.274;2024-03-07T01:26:01;34.95;;;15.63;;
84860;SDS011;75116;42.644;23.274;2024-03-07T01:28:27;34.17;;;14.43;;
84860;SDS011;75116;42.644;23.274;2024-03-07T01:30:57;26.60;;;13.52;;
84860;SDS011;75116;42.644;23.274;2024-03-07T01:33:25;28.33;;;12.30;;
84860;SDS011;75116;42.644;23.274;2024-03-07T01:35:52;28.50;;;14.45;;
84860;SDS011;75116;42.644;23.274;2024-03-07T01:38:17;25.00;;;13.00;;
84860;SDS011;75116;42.644;23.274;2024-03-07T01:40:43;37.47;;;17.15;;
84860;SDS011;75116;42.644;23.274;2024-03-07T01:43:09;21.02;;;10.82;;
84860;SDS011;75116;42.644;23.274;2024-03-07T01:45:35;34.50;;;15.10;;
84860;SDS011;75116;42.644;23.274;2024-03-07T01:48:05;22.73;;;11.40;;
84860;SDS011;75116;42.644;23.274;2024-03-07T01:50:33;16.05;;;9.38;;
84860;SDS011;75116;42.644;23.274;2024-03-07T01:52:59;26.17;;;12.35;;
84860;SDS011;75116;42.644;23.274;2024-03-07T01:55:26;26.38;;;11.80;;
84860;SDS011;75116;42.644;23.274;2024-03-07T01:57:52;22.75;;;6.45;;
84860;SDS011;75116;42.644;23.274;2024-03-07T02:00:21;17.15;;;8.75;;
84860;SDS011;75116;42.644;23.274;2024-03-07T02:02:47;23.95;;;11.95;;
84860;SDS011;75116;42.644;23.274;2024-03-07T02:05:13;10.27;;;6.15;;
84860;SDS011;75116;42.644;23.274;2024-03-07T02:07:38;12.35;;;9.05;;
84860;SDS011;75116;42.644;23.274;2024-03-07T02:10:04;3.25;;;2.47;;
84860;SDS011;75116;42.644;23.274;2024-03-07T02:12:31;3.10;;;2.20;;
84860;SDS011;75116;42.644;23.274;2024-03-07T02:14:56;7.05;;;4.07;;
84860;SDS011;75116;42.644;23.274;2024-03-07T02:17:23;6.88;;;3.78;;
84860;SDS011;75116;42.644;23.274;2024-03-07T02:19:49;9.10;;;4.95;;
84860;SDS011;75116;42.644;23.274;2024-03-07T02:22:15;16.88;;;8.10;;
84860;SDS011;75116;42.644;23.274;2024-03-07T02:24:41;14.35;;;7.47;;
84860;SDS011;75116;42.644;23.274;2024-03-07T02:27:07;13.63;;;7.15;;
84860;SDS011;75116;42.644;23.274;2024-03-07T02:29:33;10.27;;;5.15;;
84860;SDS011;75116;42.644;23.274;2024-03-07T02:31:59;10.98;;;5.45;;
84860;SDS011;75116;42.644;23.274;2024-03-07T02:34:24;14.25;;;7.70;;
84860;SDS011;75116;42.644;23.274;2024-03-07T02:36:51;10.82;;;5.30;;
84860;SDS011;75116;42.644;23.274;2024-03-07T02:39:17;8.43;;;4.65;;
84860;SDS011;75116;42.644;23.274;2024-03-07T02:41:42;8.23;;;4.43;;
84860;SDS011;75116;42.644;23.274;2024-03-07T02:44:08;7.53;;;3.17;;
84860;SDS011;75116;42.644;23.274;2024-03-07T02:46:33;12.50;;;5.90;;
84860;SDS011;75116;42.644;23.274;2024-03-07T02:48:59;14.85;;;7.50;;
84860;SDS011;75116;42.644;23.274;2024-03-07T02:51:25;14.90;;;7.57;;
84860;SDS011;75116;42.644;23.274;2024-03-07T02:53:51;8.52;;;3.20;;
84860;SDS011;75116;42.644;23.274;2024-03-07T02:56:16;7.82;;;4.65;;
84860;SDS011;75116;42.644;23.274;2024-03-07T02:58:42;5.88;;;4.03;;
84860;SDS011;75116;42.644;23.274;2024-03-07T03:01:07;8.27;;;4.47;;
84860;SDS011;75116;42.644;23.274;2024-03-07T03:03:33;6.50;;;3.90;;
84860;SDS011;75116;42.644;23.274;2024-03-07T03:05:58;9.05;;;4.10;;
84860;SDS011;75116;42.644;23.274;2024-03-07T03:08:25;6.32;;;3.22;;
84860;SDS011;75116;42.644;23.274;2024-03-07T03:10:53;8.52;;;4.25;;
84860;SDS011;75116;42.644;23.274;2024-03-07T03:13:19;16.88;;;10.20;;
84860;SDS011;75116;42.644;23.274;2024-03-07T03:15:45;9.75;;;5.05;;
84860;SDS011;75116;42.644;23.274;2024-03-07T03:18:11;5.80;;;2.88;;
84860;SDS011;75116;42.644;23.274;2024-03-07T03:20:38;7.75;;;3.90;;
84860;SDS011;75116;42.644;23.274;2024-03-07T03:23:04;5.70;;;2.90;;
84860;SDS011;75116;42.644;23.274;2024-03-07T03:25:31;4.38;;;2.22;;
84860;SDS011;75116;42.644;23.274;2024-03-07T03:28:03;6.45;;;3.83;;
84860;SDS011;75116;42.644;23.274;2024-03-07T03:30:29;6.60;;;3.83;;
84860;SDS011;75116;42.644;23.274;2024-03-07T03:32:55;2.38;;;1.48;;
84860;SDS011;75116;42.644;23.274;2024-03-07T03:35:21;5.78;;;3.38;;
84860;SDS011;75116;42.644;23.274;2024-03-07T03:37:46;7.53;;;4.32;;
84860;SDS011;75116;42.644;23.274;2024-03-07T03:40:12;8.85;;;4.38;;
84860;SDS011;75116;42.644;23.274;2024-03-07T03:42:38;5.43;;;3.17;;
84860;SDS011;75116;42.644;23.274;2024-03-07T03:45:04;7.72;;;4.35;;
84860;SDS011;75116;42.644;23.274;2024-03-07T03:47:35;8.40;;;4.13;;
84860;SDS011;75116;42.644;23.274;2024-03-07T03:50:05;5.40;;;3.72;;
84860;SDS011;75116;42.644;23.274;2024-03-07T03:52:32;7.10;;;3.70;;
84860;SDS011;75116;42.644;23.274;2024-03-07T03:54:58;5.65;;;3.03;;
84860;SDS011;75116;42.644;23.274;2024-03-07T03:57:25;6.85;;;3.60;;
84860;SDS011;75116;42.644;23.274;2024-03-07T03:59:51;6.97;;;3.65;;
84860;SDS011;75116;42.644;23.274;2024-03-07T04:02:18;7.00;;;3.67;;
84860;SDS011;75116;42.644;23.274;2024-03-07T04:04:43;9.65;;;4.32;;
84860;SDS011;75116;42.644;23.274;2024-03-07T04:07:11;10.18;;;4.00;;
84860;SDS011;75116;42.644;23.274;2024-03-07T04:09:37;6.18;;;3.78;;
84860;SDS011;75116;42.644;23.274;2024-03-07T04:12:03;11.43;;;5.53;;
84860;SDS011;75116;42.644;23.274;2024-03-07T04:14:30;7.13;;;4.53;;
84860;SDS011;75116;42.644;23.274;2024-03-07T04:16:58;7.07;;;3.85;;
84860;SDS011;75116;42.644;23.274;2024-03-07T04:19:24;7.78;;;3.90;;
84860;SDS011;75116;42.644;23.274;2024-03-07T04:21:50;6.22;;;3.67;;
84860;SDS011;75116;42.644;23.274;2024-03-07T04:24:16;5.85;;;3.40;;
84860;SDS011;75116;42.644;23.274;2024-03-07T04:26:42;7.70;;;4.45;;
84860;SDS011;75116;42.644;23.274;2024-03-07T04:29:08;8.52;;;5.18;;
84860;SDS011;75116;42.644;23.274;2024-03-07T04:31:34;7.13;;;4.05;;
84860;SDS011;75116;42.644;23.274;2024-03-07T04:34:00;9.60;;;5.32;;
84860;SDS011;75116;42.644;23.274;2024-03-07T04:36:25;10.00;;;5.22;;
84860;SDS011;75116;42.644;23.274;2024-03-07T04:38:51;9.10;;;5.53;;
84860;SDS011;75116;42.644;23.274;2024-03-07T04:41:17;8.05;;;4.97;;
84860;SDS011;75116;42.644;23.274;2024-03-07T04:43:43;9.48;;;4.38;;
84860;SDS011;75116;42.644;23.274;2024-03-07T04:46:09;7.40;;;4.05;;
84860;SDS011;75116;42.644;23.274;2024-03-07T04:48:35;7.05;;;4.80;;
84860;SDS011;75116;42.644;23.274;2024-03-07T04:51:01;6.63;;;4.00;;
84860;SDS011;75116;42.644;23.274;2024-03-07T04:53:26;7.90;;;4.82;;
84860;SDS011;75116;42.644;23.274;2024-03-07T04:55:52;7.32;;;4.70;;
84860;SDS011;75116;42.644;23.274;2024-03-07T04:58:17;18.30;;;6.25;;
84860;SDS011;75116;42.644;23.274;2024-03-07T05:00:43;42.30;;;6.72;;
84860;SDS011;75116;42.644;23.274;2024-03-07T05:03:08;8.05;;;4.60;;
84860;SDS011;75116;42.644;23.274;2024-03-07T05:05:34;74.60;;;9.48;;
84860;SDS011;75116;42.644;23.274;2024-03-07T05:08:00;99.93;;;7.00;;
84860;SDS011;75116;42.644;23.274;2024-03-07T05:10:25;72.38;;;5.72;;
84860;SDS011;75116;42.644;23.274;2024-03-07T05:12:54;21.98;;;5.05;;
84860;SDS011;75116;42.644;23.274;2024-03-07T05:15:20;49.80;;;5.45;;
84860;SDS011;75116;42.644;23.274;2024-03-07T05:17:45;11.40;;;6.95;;
84860;SDS011;75116;42.644;23.274;2024-03-07T05:20:11;11.23;;;7.00;;
84860;SDS011;75116;42.644;23.274;2024-03-07T05:22:37;9.68;;;5.32;;
84860;SDS011;75116;42.644;23.274;2024-03-07T05:25:09;8.57;;;4.82;;
84860;SDS011;75116;42.644;23.274;2024-03-07T05:27:35;6.55;;;3.78;;
84860;SDS011;75116;42.644;23.274;2024-03-07T05:30:02;9.20;;;5.22;;
84860;SDS011;75116;42.644;23.274;2024-03-07T05:32:34;8.52;;;4.82;;
84860;SDS011;75116;42.644;23.274;2024-03-07T05:35:00;9.32;;;3.97;;
84860;SDS011;75116;42.644;23.274;2024-03-07T05:37:26;3.58;;;2.17;;
84860;SDS011;75116;42.644;23.274;2024-03-07T05:39:52;5.05;;;2.72;;
84860;SDS011;75116;42.644;23.274;2024-03-07T05:42:18;5.20;;;2.58;;
84860;SDS011;75116;42.644;23.274;2024-03-07T05:44:44;6.35;;;3.17;;
84860;SDS011;75116;42.644;23.274;2024-03-07T05:47:10;6.80;;;2.72;;
84860;SDS011;75116;42.644;23.274;2024-03-07T05:49:38;2.55;;;1.85;;
84860;SDS011;75116;42.644;23.274;2024-03-07T05:52:04;2.63;;;1.17;;
84860;SDS011;75116;42.644;23.274;2024-03-07T05:54:33;4.45;;;2.20;;
84860;SDS011;75116;42.644;23.274;2024-03-07T05:57:00;5.88;;;2.92;;
84860;SDS011;75116;42.644;23.274;2024-03-07T05:59:26;3.95;;;2.10;;
84860;SDS011;75116;42.644;23.274;2024-03-07T06:01:53;4.45;;;2.70;;
84860;SDS011;75116;42.644;23.274;2024-03-07T06:04:19;4.47;;;2.58;;
84860;SDS011;75116;42.644;23.274;2024-03-07T06:06:45;2.92;;;1.88;;
84860;SDS011;75116;42.644;23.274;2024-03-07T06:09:13;4.97;;;2.75;;
84860;SDS011;75116;42.644;23.274;2024-03-07T06:11:39;2.65;;;1.95;;
84860;SDS011;75116;42.644;23.274;2024-03-07T06:14:09;5.25;;;3.08;;
84860;SDS011;75116;42.644;23.274;2024-03-07T06:16:38;3.85;;;2.55;;
84860;SDS011;75116;42.644;23.274;2024-03-07T06:19:04;3.80;;;2.00;;
84860;SDS011;75116;42.644;23.274;2024-03-07T06:21:36;5.13;;;2.60;;
84860;SDS011;75116;42.644;23.274;2024-03-07T06:24:04;1.48;;;1.30;;
84860;SDS011;75116;42.644;23.274;2024-03-07T06:26:33;4.10;;;2.22;;
84860;SDS011;75116;42.644;23.274;2024-03-07T06:29:13;1.98;;;1.40;;
84860;SDS011;75116;42.644;23.274;2024-03-07T06:31:41;4.15;;;2.30;;
84860;SDS011;75116;42.644;23.274;2024-03-07T06:34:06;2.80;;;1.73;;
84860;SDS011;75116;42.644;23.274;2024-03-07T06:36:33;3.63;;;2.08;;
84860;SDS011;75116;42.644;23.274;2024-03-07T06:38:59;4.20;;;2.70;;
84860;SDS011;75116;42.644;23.274;2024-03-07T06:41:25;4.50;;;3.00;;
84860;SDS011;75116;42.644;23.274;2024-03-07T06:43:51;3.15;;;2.50;;
84860;SDS011;75116;42.644;23.274;2024-03-07T06:46:18;3.75;;;2.53;;
84860;SDS011;75116;42.644;23.274;2024-03-07T06:48:45;2.03;;;1.17;;
84860;SDS011;75116;42.644;23.274;2024-03-07T06:51:10;4.53;;;3.40;;
84860;SDS011;75116;42.644;23.274;2024-03-07T06:53:36;4.22;;;2.20;;
84860;SDS011;75116;42.644;23.274;2024-03-07T06:56:02;6.05;;;1.73;;
84860;SDS011;75116;42.644;23.274;2024-03-07T06:58:27;4.18;;;2.92;;
84860;SDS011;75116;42.644;23.274;2024-03-07T07:00:53;5.43;;;2.75;;
84860;SDS011;75116;42.644;23.274;2024-03-07T07:03:19;5.25;;;2.80;;
84860;SDS011;75116;42.644;23.274;2024-03-07T07:05:46;3.78;;;2.50;;
84860;SDS011;75116;42.644;23.274;2024-03-07T07:08:11;6.30;;;4.65;;
84860;SDS011;75116;42.644;23.274;2024-03-07T07:10:41;6.85;;;4.45;;
84860;SDS011;75116;42.644;23.274;2024-03-07T07:13:07;9.15;;;5.28;;
84860;SDS011;75116;42.644;23.274;2024-03-07T07:15:33;9.15;;;5.32;;
84860;SDS011;75116;42.644;23.274;2024-03-07T07:18:01;8.80;;;3.90;;
84860;SDS011;75116;42.644;23.274;2024-03-07T07:20:27;7.38;;;4.25;;
84860;SDS011;75116;42.644;23.274;2024-03-07T07:22:53;8.85;;;5.65;;
84860;SDS011;75116;42.644;23.274;2024-03-07T07:25:19;14.40;;;6.82;;
84860;SDS011;75116;42.644;23.274;2024-03-07T07:27:47;5.72;;;3.50;;
84860;SDS011;75116;42.644;23.274;2024-03-07T07:30:14;7.90;;;4.70;;
84860;SDS011;75116;42.644;23.274;2024-03-07T07:32:42;6.68;;;4.22;;
84860;SDS011;75116;42.644;23.274;2024-03-07T07:35:12;6.20;;;4.25;;
84860;SDS011;75116;42.644;23.274;2024-03-07T07:37:38;8.45;;;4.25;;
84860;SDS011;75116;42.644;23.274;2024-03-07T07:40:05;7.35;;;4.75;;
84860;SDS011;75116;42.644;23.274;2024-03-07T07:42:34;9.70;;;4.97;;
84860;SDS011;75116;42.644;23.274;2024-03-07T07:45:03;7.45;;;4.28;;
84860;SDS011;75116;42.644;23.274;2024-03-07T07:47:36;9.77;;;4.80;;
84860;SDS011;75116;42.644;23.274;2024-03-07T07:50:08;6.88;;;3.92;;
84860;SDS011;75116;42.644;23.274;2024-03-07T07:52:46;6.68;;;3.25;;
84860;SDS011;75116;42.644;23.274;2024-03-07T07:55:16;8.85;;;4.93;;
84860;SDS011;75116;42.644;23.274;2024-03-07T07:57:45;7.55;;;3.70;;
84860;SDS011;75116;42.644;23.274;2024-03-07T08:00:17;6.88;;;4.38;;
84860;SDS011;75116;42.644;23.274;2024-03-07T08:05:23;5.70;;;3.17;;
84860;SDS011;75116;42.644;23.274;2024-03-07T08:07:54;5.75;;;3.58;;
84860;SDS011;75116;42.644;23.274;2024-03-07T08:10:22;5.68;;;3.72;;
84860;SDS011;75116;42.644;23.274;2024-03-07T08:12:55;5.53;;;3.53;;
84860;SDS011;75116;42.644;23.274;2024-03-07T08:15:25;5.25;;;3.70;;
84860;SDS011;75116;42.644;23.274;2024-03-07T08:17:53;5.30;;;3.70;;
84860;SDS011;75116;42.644;23.274;2024-03-07T08:20:20;8.77;;;4.80;;
84860;SDS011;75116;42.644;23.274;2024-03-07T08:22:47;5.43;;;3.38;;
84860;SDS011;75116;42.644;23.274;2024-03-07T08:25:16;7.95;;;4.50;;
84860;SDS011;75116;42.644;23.274;2024-03-07T08:27:44;6.25;;;4.40;;
84860;SDS011;75116;42.644;23.274;2024-03-07T08:30:11;7.78;;;5.28;;
84860;SDS011;75116;42.644;23.274;2024-03-07T08:32:40;8.35;;;4.65;;
84860;SDS011;75116;42.644;23.274;2024-03-07T08:35:06;2.38;;;2.15;;
84860;SDS011;75116;42.644;23.274;2024-03-07T08:37:38;6.95;;;4.93;;
84860;SDS011;75116;42.644;23.274;2024-03-07T08:40:05;7.80;;;4.70;;
84860;SDS011;75116;42.644;23.274;2024-03-07T08:42:53;9.43;;;5.30;;
84860;SDS011;75116;42.644;23.274;2024-03-07T08:45:21;9.65;;;6.05;;
84860;SDS011;75116;42.644;23.274;2024-03-07T08:47:48;12.07;;;5.47;;
84860;SDS011;75116;42.644;23.274;2024-03-07T08:50:18;6.00;;;3.78;;
84860;SDS011;75116;42.644;23.274;2024-03-07T08:52:44;8.00;;;4.80;;
84860;SDS011;75116;42.644;23.274;2024-03-07T08:55:17;7.63;;;5.18;;
84860;SDS011;75116;42.644;23.274;2024-03-07T08:57:44;7.10;;;2.65;;
84860;SDS011;75116;42.644;23.274;2024-03-07T09:00:11;6.40;;;4.35;;
84860;SDS011;75116;42.644;23.274;2024-03-07T09:02:47;8.00;;;5.13;;
84860;SDS011;75116;42.644;23.274;2024-03-07T09:05:15;12.45;;;6.40;;
84860;SDS011;75116;42.644;23.274;2024-03-07T09:07:41;13.60;;;6.60;;
84860;SDS011;75116;42.644;23.274;2024-03-07T09:10:06;12.73;;;8.18;;
84860;SDS011;75116;42.644;23.274;2024-03-07T09:12:32;10.68;;;5.93;;
84860;SDS011;75116;42.644;23.274;2024-03-07T09:14:58;10.65;;;7.53;;
84860;SDS011;75116;42.644;23.274;2024-03-07T09:17:23;10.88;;;6.43;;
84860;SDS011;75116;42.644;23.274;2024-03-07T09:19:49;9.80;;;6.57;;
84860;SDS011;75116;42.644;23.274;2024-03-07T09:22:15;9.88;;;5.47;;
84860;SDS011;75116;42.644;23.274;2024-03-07T09:24:40;8.57;;;5.65;;
84860;SDS011;75116;42.644;23.274;2024-03-07T09:27:06;7.38;;;4.22;;
84860;SDS011;75116;42.644;23.274;2024-03-07T09:29:33;8.70;;;5.53;;
84860;SDS011;75116;42.644;23.274;2024-03-07T09:31:58;8.93;;;5.72;;
84860;SDS011;75116;42.644;23.274;2024-03-07T09:34:24;9.80;;;6.00;;
84860;SDS011;75116;42.644;23.274;2024-03-07T09:36:50;6.68;;;5.10;;
84860;SDS011;75116;42.644;23.274;2024-03-07T09:39:17;9.20;;;5.47;;
84860;SDS011;75116;42.644;23.274;2024-03-07T09:41:43;8.70;;;5.30;;
84860;SDS011;75116;42.644;23.274;2024-03-07T09:44:10;8.60;;;5.47;;
84860;SDS011;75116;42.644;23.274;2024-03-07T09:46:39;10.18;;;5.05;;
84860;SDS011;75116;42.644;23.274;2024-03-07T09:49:08;5.53;;;4.22;;
84860;SDS011;75116;42.644;23.274;2024-03-07T09:51:37;6.80;;;4.05;;
84860;SDS011;75116;42.644;23.274;2024-03-07T09:54:03;8.32;;;4.25;;
84860;SDS011;75116;42.644;23.274;2024-03-07T09:56:28;5.70;;;4.07;;
84860;SDS011;75116;42.644;23.274;2024-03-07T09:59:01;8.20;;;4.97;;
84860;SDS011;75116;42.644;23.274;2024-03-07T10:01:30;9.07;;;6.28;;
84860;SDS011;75116;42.644;23.274;2024-03-07T10:03:59;6.43;;;4.88;;
84860;SDS011;75116;42.644;23.274;2024-03-07T10:06:37;6.30;;;4.47;;
84860;SDS011;75116;42.644;23.274;2024-03-07T10:09:04;4.70;;;3.42;;
84860;SDS011;75116;42.644;23.274;2024-03-07T10:11:32;4.97;;;3.70;;
84860;SDS011;75116;42.644;23.274;2024-03-07T10:14:00;4.18;;;2.42;;
84860;SDS011;75116;42.644;23.274;2024-03-07T10:16:28;6.57;;;4.32;;
84860;SDS011;75116;42.644;23.274;2024-03-07T10:18:54;8.88;;;6.35;;
84860;SDS011;75116;42.644;23.274;2024-03-07T10:21:20;10.35;;;6.80;;
84860;SDS011;75116;42.644;23.274;2024-03-07T10:23:46;4.63;;;2.72;;
84860;SDS011;75116;42.644;23.274;2024-03-07T10:26:11;5.53;;;4.05;;
84860;SDS011;75116;42.644;23.274;2024-03-07T10:28:38;9.57;;;6.13;;
84860;SDS011;75116;42.644;23.274;2024-03-07T10:31:03;5.07;;;3.17;;
84860;SDS011;75116;42.644;23.274;2024-03-07T10:33:34;9.07;;;6.10;;
84860;SDS011;75116;42.644;23.274;2024-03-07T10:36:00;8.57;;;4.18;;
84860;SDS011;75116;42.644;23.274;2024-03-07T10:38:26;6.10;;;4.10;;
84860;SDS011;75116;42.644;23.274;2024-03-07T10:40:52;4.88;;;2.85;;
84860;SDS011;75116;42.644;23.274;2024-03-07T10:43:20;4.78;;;3.35;;
84860;SDS011;75116;42.644;23.274;2024-03-07T10:45:47;12.07;;;6.13;;
84860;SDS011;75116;42.644;23.274;2024-03-07T10:48:16;6.68;;;4.97;;
84860;SDS011;75116;42.644;23.274;2024-03-07T10:53:15;5.47;;;3.78;;
84860;SDS011;75116;42.644;23.274;2024-03-07T10:58:31;9.15;;;5.45;;
84860;SDS011;75116;42.644;23.274;2024-03-07T11:01:03;9.88;;;6.50;;
84860;SDS011;75116;42.644;23.274;2024-03-07T11:03:34;8.75;;;5.80;;
84860;SDS011;75116;42.644;23.274;2024-03-07T11:06:00;7.47;;;5.68;;
84860;SDS011;75116;42.644;23.274;2024-03-07T11:08:32;8.95;;;4.15;;
84860;SDS011;75116;42.644;23.274;2024-03-07T11:11:00;10.63;;;5.90;;
84860;SDS011;75116;42.644;23.274;2024-03-07T11:13:26;8.43;;;5.40;;
84860;SDS011;75116;42.644;23.274;2024-03-07T11:15:53;9.10;;;4.88;;
84860;SDS011;75116;42.644;23.274;2024-03-07T11:18:22;10.00;;;5.05;;
84860;SDS011;75116;42.644;23.274;2024-03-07T11:20:57;8.50;;;5.85;;
84860;SDS011;75116;42.644;23.274;2024-03-07T11:23:32;11.68;;;5.00;;
84860;SDS011;75116;42.644;23.274;2024-03-07T11:26:06;7.47;;;5.07;;
84860;SDS011;75116;42.644;23.274;2024-03-07T11:28:33;8.73;;;4.15;;
84860;SDS011;75116;42.644;23.274;2024-03-07T11:31:13;5.53;;;3.92;;
84860;SDS011;75116;42.644;23.274;2024-03-07T11:33:42;7.00;;;3.13;;
84860;SDS011;75116;42.644;23.274;2024-03-07T11:36:43;6.43;;;2.03;;
84860;SDS011;75116;42.644;23.274;2024-03-07T11:42:24;3.72;;;2.63;;
84860;SDS011;75116;42.644;23.274;2024-03-07T11:44:58;5.90;;;3.92;;
84860;SDS011;75116;42.644;23.274;2024-03-07T11:47:25;5.05;;;3.80;;
84860;SDS011;75116;42.644;23.274;2024-03-07T11:49:54;6.38;;;2.78;;
84860;SDS011;75116;42.644;23.274;2024-03-07T11:52:23;4.90;;;2.33;;
84860;SDS011;75116;42.644;23.274;2024-03-07T11:54:52;5.03;;;2.22;;
84860;SDS011;75116;42.644;23.274;2024-03-07T11:57:18;4.65;;;2.97;;
84860;SDS011;75116;42.644;23.274;2024-03-07T11:59:45;6.22;;;3.53;;
84860;SDS011;75116;42.644;23.274;2024-03-07T12:02:14;4.65;;;3.50;;
84860;SDS011;75116;42.644;23.274;2024-03-07T12:04:43;5.70;;;4.05;;
84860;SDS011;75116;42.644;23.274;2024-03-07T12:07:09;5.00;;;3.58;;
84860;SDS011;75116;42.644;23.274;2024-03-07T12:09:39;2.13;;;1.70;;
84860;SDS011;75116;42.644;23.274;2024-03-07T12:12:05;3.70;;;2.13;;
84860;SDS011;75116;42.644;23.274;2024-03-07T12:14:31;2.67;;;2.05;;
84860;SDS011;75116;42.644;23.274;2024-03-07T12:16:59;4.13;;;2.25;;
84860;SDS011;75116;42.644;23.274;2024-03-07T12:19:26;5.72;;;3.65;;
84860;SDS011;75116;42.644;23.274;2024-03-07T12:21:56;5.25;;;3.42;;
84860;SDS011;75116;42.644;23.274;2024-03-07T12:24:25;9.02;;;4.47;;
84860;SDS011;75116;42.644;23.274;2024-03-07T12:27:03;6.78;;;4.88;;
84860;SDS011;75116;42.644;23.274;2024-03-07T12:29:41;5.00;;;3.00;;
84860;SDS011;75116;42.644;23.274;2024-03-07T12:32:13;4.45;;;2.53;;
84860;SDS011;75116;42.644;23.274;2024-03-07T12:34:39;3.95;;;2.72;;
84860;SDS011;75116;42.644;23.274;2024-03-07T12:37:10;6.40;;;3.80;;
84860;SDS011;75116;42.644;23.274;2024-03-07T12:39:40;5.60;;;2.85;;
84860;SDS011;75116;42.644;23.274;2024-03-07T12:42:17;3.05;;;2.08;;
84860;SDS011;75116;42.644;23.274;2024-03-07T12:44:45;3.42;;;2.03;;
84860;SDS011;75116;42.644;23.274;2024-03-07T12:47:11;5.45;;;3.00;;
84860;SDS011;75116;42.644;23.274;2024-03-07T12:49:40;5.20;;;3.20;;
84860;SDS011;75116;42.644;23.274;2024-03-07T12:52:07;4.13;;;2.80;;
84860;SDS011;75116;42.644;23.274;2024-03-07T12:54:36;2.50;;;1.95;;
84860;SDS011;75116;42.644;23.274;2024-03-07T12:57:14;4.68;;;3.00;;
84860;SDS011;75116;42.644;23.274;2024-03-07T12:59:40;3.72;;;2.28;;
84860;SDS011;75116;42.644;23.274;2024-03-07T13:02:10;4.03;;;1.95;;
84860;SDS011;75116;42.644;23.274;2024-03-07T13:04:40;3.70;;;2.60;;
84860;SDS011;75116;42.644;23.274;2024-03-07T13:07:07;1.70;;;1.60;;
84860;SDS011;75116;42.644;23.274;2024-03-07T13:09:33;3.15;;;2.25;;
84860;SDS011;75116;42.644;23.274;2024-03-07T13:11:59;3.97;;;2.15;;
84860;SDS011;75116;42.644;23.274;2024-03-07T13:14:26;3.05;;;1.30;;
84860;SDS011;75116;42.644;23.274;2024-03-07T13:16:57;3.78;;;2.30;;
84860;SDS011;75116;42.644;23.274;2024-03-07T13:19:26;2.47;;;2.00;;
84860;SDS011;75116;42.644;23.274;2024-03-07T13:21:52;2.47;;;1.48;;
84860;SDS011;75116;42.644;23.274;2024-03-07T13:24:19;5.28;;;2.95;;
84860;SDS011;75116;42.644;23.274;2024-03-07T13:26:45;4.40;;;1.77;;
84860;SDS011;75116;42.644;23.274;2024-03-07T13:29:13;2.40;;;1.25;;
84860;SDS011;75116;42.644;23.274;2024-03-07T13:31:39;2.60;;;1.48;;
84860;SDS011;75116;42.644;23.274;2024-03-07T13:34:08;0.60;;;0.60;;
84860;SDS011;75116;42.644;23.274;2024-03-07T13:36:41;6.88;;;1.98;;
84860;SDS011;75116;42.644;23.274;2024-03-07T13:39:08;1.77;;;1.27;;
84860;SDS011;75116;42.644;23.274;2024-03-07T13:41:40;2.15;;;0.82;;
84860;SDS011;75116;42.644;23.274;2024-03-07T13:44:06;2.03;;;1.55;;
84860;SDS011;75116;42.644;23.274;2024-03-07T13:46:32;2.95;;;1.60;;
84860;SDS011;75116;42.644;23.274;2024-03-07T13:49:01;2.63;;;1.17;;
84860;SDS011;75116;42.644;23.274;2024-03-07T13:51:42;2.30;;;1.02;;
84860;SDS011;75116;42.644;23.274;2024-03-07T13:54:28;3.10;;;1.58;;
84860;SDS011;75116;42.644;23.274;2024-03-07T14:17:31;3.47;;;2.60;;
84860;SDS011;75116;42.644;23.274;2024-03-07T14:23:09;4.68;;;3.10;;
84860;SDS011;75116;42.644;23.274;2024-03-07T14:28:51;5.50;;;3.50;;
84860;SDS011;75116;42.644;23.274;2024-03-07T14:31:40;5.60;;;3.67;;
84860;SDS011;75116;42.644;23.274;2024-03-07T14:36:56;5.03;;;2.78;;
84860;SDS011;75116;42.644;23.274;2024-03-07T14:39:27;2.92;;;1.75;;
84860;SDS011;75116;42.644;23.274;2024-03-07T14:41:57;3.67;;;2.35;;
84860;SDS011;75116;42.644;23.274;2024-03-07T14:44:25;4.25;;;2.42;;
84860;SDS011;75116;42.644;23.274;2024-03-07T14:46:57;4.85;;;2.47;;
84860;SDS011;75116;42.644;23.274;2024-03-07T14:49:31;3.60;;;2.42;;
84860;SDS011;75116;42.644;23.274;2024-03-07T14:51:57;4.53;;;2.83;;
84860;SDS011;75116;42.644;23.274;2024-03-07T14:54:23;2.58;;;1.88;;
84860;SDS011;75116;42.644;23.274;2024-03-07T14:56:49;2.33;;;1.63;;
84860;SDS011;75116;42.644;23.274;2024-03-07T14:59:14;3.63;;;2.00;;
84860;SDS011;75116;42.644;23.274;2024-03-07T15:01:40;6.10;;;3.10;;
84860;SDS011;75116;42.644;23.274;2024-03-07T15:04:06;6.63;;;4.53;;
84860;SDS011;75116;42.644;23.274;2024-03-07T15:06:39;10.65;;;6.00;;
84860;SDS011;75116;42.644;23.274;2024-03-07T15:09:05;8.93;;;5.70;;
84860;SDS011;75116;42.644;23.274;2024-03-07T15:11:38;11.13;;;6.55;;